Soaring Guidance
Issued by NWS Reno, NV

Home | Current Version | Previous Version | Text Only | Print | Product List | Glossary On
Versions: 1 2 3 4 5 6 7 8 9 10 11 12
000
UXUS97 KREV 081448
SRGREV

SOARING FORECAST
NATIONAL WEATHER SERVICE - RENO NV
700 AM PST MON FEB 8 2016

THIS SOARING FORECAST IS FOR THE EASTERN SIERRA AND WESTERN NEVADA
WITH SPECIFIC INDICES FOR THE GREATER RENO AREA.

THIS FORECAST IS PREPARED DAILY BY 700 AM AND IS NOT UPDATED.

FOR CURRENT FLIGHT CONDITIONS...FORECASTS...AND ADVISORIES...ACCESS
YOUR LOCAL BRIEFING OUTLET OR FLIGHT SERVICE STATION.

*******************************************************************
FORECASTED LOCAL INDICES FOR RENO:        TODAY     YESTERDAY
FORECASTED MAX TEMP AT RENO (DEG F).....     57          56
FORECASTED TRIGGER TEMPERATURE (DEG F)..     64          60
   EXCEEDED YESTERDAY BY 955 AM PST
FORECASTED MAXIMUM ALTITUDE (FT MSL)....   7600        7500
FORECASTED SOARING INDEX (FPM)..........    258         225
FORECASTED K-INDEX.........VALID 18Z....     -4           3
FORECASTED K-INDEX.........VALID 00Z....     -4           6
FORECASTED LIFTED INDEX....VALID 18Z....     13          15
FORECASTED LIFTED INDEX....VALID 00Z....     12          14

AFTERNOON WINDS ALOFT FORECAST
MSL (FT) WIND/TEMP
9000  1321/+08
10000 1321/+06
12000 1322/+03
14000 1321/-02
16000 1319/-08
18000 1314/-14
24000 1413/-28
30000 1412/-43
34000 3226/-51
39000 3337/-51

SLIDE MOUNTAIN DATA:
     DATE       TIME     TEMP  DEWPT   RH         WIND (MPH)
                        (F)   (F)           | DIR  SPEED GUST
2016-02-08    04:50      32    17     59    | 092   44   49
2016-02-08    04:30      32    17     58    | 094   43   49
2016-02-08    04:20      32    17     58    | 092   44   49
2016-02-08    04:00      32    17     58    | 092   46   51

RENO TAF FORECAST:
KRNO 081131Z 0812/0912 VRB03KT P6SM SKC
     FM082200 09006KT P6SM SKC
     FM090200 VRB03KT P6SM SKC

CARSON CITY TAF FORECAST:
KCXP 081131Z 0812/0912 VRB03KT P6SM SKC
     FM081900 09011G17KT P6SM SKC
     FM090200 VRB03KT P6SM SKC

OUTLOOK FOR THE RENO-CARSON CITY-MINDEN AREA:
.TUESDAY...SUNNY. HIGHS 58 TO 63. LIGHT WINDS BECOMING SOUTHEAST
UP TO 10 MPH IN THE AFTERNOON.

SUNRISE AND SUNSET
FEBRUARY  8 2016......SUNRISE   700 AM PST   SUNSET   527 PM PST
FEBRUARY  9 2016......SUNRISE   659 AM PST   SUNSET   528 PM PST


USA.gov is the U.S. government's official web portal to all federal, state and local government web resources and services.